Time;durP1;ratioP1;P1;durP2;ratioP2;P2;SDS_P1;SDS_P2;PMS_P1;PMS_P2;Temp;Humidity;BMP_temperature;BMP_pressure;BME280_temperature;BME280_humidity;BME280_pressure;Samples;Min_cycle;Max_cycle;Signal;HPM_P1;HPM_P2
2023/01/28 07:22:51;;;;;;;;;26.00;23.00;;;;;3.11;100.00;102500.88;5738261;23;49250;-68
2023/01/28 07:25:16;;;;;;;;;22.50;21.00;;;;;4.38;100.00;102749.75;4912001;28;50027;-66
2023/01/28 07:27:50;;;;;;;;;26.25;22.75;;;;;4.10;100.00;102670.41;4915143;28;49879;-71
2023/01/28 07:30:17;;;;;;;;;26.25;23.25;;;;;3.79;100.00;102633.34;4912009;28;49935;-65
2023/01/28 07:32:43;;;;;;;;;30.00;22.75;;;;;3.77;100.00;102620.25;4931304;28;49627;-71
2023/01/28 07:35:08;;;;;;;;;32.75;24.25;;;;;3.01;100.00;102519.09;4912655;28;49806;-69
2023/01/28 07:37:33;;;;;;;;;35.50;26.25;;;;;4.02;100.00;102672.41;4915660;28;49750;-62
2023/01/28 07:39:59;;;;;;;;;25.25;23.25;;;;;3.71;100.00;102615.47;4911888;28;51359;-62
2023/01/28 07:42:24;;;;;;;;;31.25;26.25;;;;;3.87;100.00;102647.84;4911104;28;49819;-67
2023/01/28 07:44:50;;;;;;;;;29.00;24.75;;;;;2.47;100.00;102440.38;4912816;28;50262;-66
2023/01/28 07:47:15;;;;;;;;;23.50;22.00;;;;;3.99;100.00;102686.06;4913441;28;49957;-69
2023/01/28 07:49:40;;;;;;;;;26.75;25.50;;;;;4.00;100.00;102686.97;4912672;28;49930;-66
2023/01/28 07:52:07;;;;;;;;;30.00;23.25;;;;;3.74;100.00;102630.38;4919683;28;50136;-64
2023/01/28 07:54:32;;;;;;;;;33.75;23.25;;;;;3.21;100.00;102575.16;4925658;28;49834;-63
2023/01/28 07:56:57;;;;;;;;;26.75;25.75;;;;;3.98;100.00;102676.47;4920071;28;49622;-63
2023/01/28 07:59:23;;;;;;;;;27.75;25.25;;;;;3.60;100.00;102610.22;4917459;28;49839;-71
2023/01/28 08:01:48;;;;;;;;;28.50;25.50;;;;;4.47;100.00;102741.75;4912351;28;49753;-65
2023/01/28 08:04:14;;;;;;;;;23.50;21.75;;;;;4.31;100.00;102711.03;4912278;28;50060;-67
2023/01/28 08:06:39;;;;;;;;;31.25;25.75;;;;;3.65;100.00;102603.69;4910173;28;50115;-63
2023/01/28 08:09:06;;;;;;;;;34.00;29.50;;;;;3.81;100.00;102617.09;4911766;28;53010;-68
2023/01/28 08:11:33;;;;;;;;;32.75;27.25;;;;;4.39;100.00;102706.44;4911501;28;49861;-65
2023/01/28 08:13:59;;;;;;;;;38.75;29.25;;;;;4.45;100.00;102712.13;4912088;28;50085;-72
2023/01/28 08:16:24;;;;;;;;;30.25;25.00;;;;;4.69;100.00;102757.28;4911894;28;50052;-67
2023/01/28 08:18:51;;;;;;;;;30.25;24.25;;;;;3.47;100.00;102605.75;4912535;28;51015;-69
2023/01/28 08:21:16;;;;;;;;;29.75;25.00;;;;;4.53;100.00;102740.50;4905362;28;49651;-76
2023/01/28 08:23:42;;;;;;;;;23.50;20.75;;;;;4.69;100.00;102760.78;4909440;28;50164;-63
2023/01/28 08:26:07;;;;;;;;;36.25;26.00;;;;;3.45;100.00;102534.63;4911038;28;49808;-63
2023/01/28 08:28:34;;;;;;;;;15.50;12.25;;;;;4.64;100.00;102769.97;4910423;28;52077;-66
2023/01/28 08:31:00;;;;;;;;;31.50;30.25;;;;;4.76;100.00;102767.38;4912364;28;49659;-63
2023/01/28 08:33:26;;;;;;;;;31.50;31.25;;;;;4.16;100.00;102655.28;4911477;28;50015;-63
2023/01/28 08:35:51;;;;;;;;;26.50;22.75;;;;;3.30;100.00;102517.88;4913303;28;50685;-63
2023/01/28 08:38:18;;;;;;;;;31.00;24.00;;;;;4.75;100.00;102739.56;4910360;28;52866;-63
2023/01/28 08:40:44;;;;;;;;;25.75;24.25;;;;;4.86;100.00;102806.31;4911166;28;49940;-64
2023/01/28 08:43:09;;;;;;;;;25.00;22.75;;;;;4.75;100.00;102752.56;4910576;28;49714;-63
2023/01/28 08:45:34;;;;;;;;;31.50;27.75;;;;;4.29;100.00;102681.44;4909822;28;49973;-63
2023/01/28 08:48:02;;;;;;;;;31.75;25.75;;;;;3.53;100.00;102602.75;4910860;28;51152;-63
2023/01/28 08:50:37;;;;;;;;;27.25;23.50;;;;;3.19;100.00;102523.94;4910617;28;50307;-69
2023/01/28 08:53:05;;;;;;;;;31.75;26.00;;;;;4.35;100.00;102671.50;4910715;28;50081;-64
2023/01/28 08:55:32;;;;;;;;;26.50;23.25;;;;;4.62;100.00;102723.78;4911332;28;49976;-67
2023/01/28 08:58:01;;;;;;;;;31.75;27.00;;;;;4.37;100.00;102679.41;4911292;28;49652;-66
2023/01/28 09:00:27;;;;;;;;;27.25;23.25;;;;;4.56;100.00;102737.25;4910594;28;49689;-72
2023/01/28 09:02:52;;;;;;;;;31.75;23.75;;;;;3.60;100.00;102555.69;4910869;28;50077;-63
2023/01/28 09:05:19;;;;;;;;;32.25;25.00;;;;;4.51;100.00;102716.06;4911397;28;50093;-72
2023/01/28 09:07:45;;;;;;;;;26.50;23.50;;;;;5.11;100.00;102809.97;4910408;28;51300;-67
2023/01/28 09:10:11;;;;;;;;;30.00;27.00;;;;;5.12;100.00;102777.06;4912259;28;49733;-62
2023/01/28 09:12:36;;;;;;;;;29.00;24.25;;;;;5.18;100.00;102794.03;4911928;28;49927;-65
2023/01/28 09:15:02;;;;;;;;;26.00;22.75;;;;;4.71;100.00;102727.09;4911961;28;49925;-63
2023/01/28 09:17:28;;;;;;;;;22.00;22.00;;;;;5.07;100.00;102787.13;4911802;28;51112;-63
2023/01/28 09:19:53;;;;;;;;;25.00;23.25;;;;;4.85;100.00;102735.16;4911856;28;49734;-62
2023/01/28 09:22:18;;;;;;;;;32.00;27.50;;;;;4.73;100.00;102722.91;4914442;28;49727;-64
2023/01/28 09:24:44;;;;;;;;;26.50;25.25;;;;;5.17;100.00;102773.09;4915198;28;49877;-63
2023/01/28 09:27:09;;;;;;;;;27.00;24.00;;;;;5.31;100.00;102811.50;4915111;28;51073;-63
2023/01/28 09:29:34;;;;;;;;;29.75;25.50;;;;;5.31;100.00;102810.59;4915726;28;49721;-61
2023/01/28 09:32:00;;;;;;;;;32.00;28.25;;;;;5.39;100.00;102804.22;4915553;28;49871;-64
2023/01/28 09:34:25;;;;;;;;;33.50;26.50;;;;;5.21;100.00;102824.63;4915584;28;50004;-61
2023/01/28 09:36:51;;;;;;;;;31.00;23.25;;;;;5.03;100.00;102800.72;4914837;28;49839;-66
2023/01/28 09:39:17;;;;;;;;;35.75;30.25;;;;;4.70;100.00;102728.78;4915175;28;49968;-62
2023/01/28 09:42:01;;;;;;;;;32.50;27.50;;;;;5.13;100.00;102825.75;4915431;28;50451;-62
2023/01/28 09:44:50;;;;;;;;;27.50;24.25;;;;;5.10;100.00;102833.28;4915479;28;49810;-64
2023/01/28 09:47:24;;;;;;;;;28.00;20.50;;;;;4.90;100.00;102779.72;4914101;28;50532;-62
2023/01/28 09:49:55;;;;;;;;;26.25;21.00;;;;;4.71;100.00;102758.31;4912813;28;50058;-63
2023/01/28 09:52:23;;;;;;;;;26.50;20.75;;;;;4.78;100.00;102764.09;4912019;28;49886;-68
2023/01/28 09:54:54;;;;;;;;;28.25;21.25;;;;;5.11;100.00;102816.88;4913891;28;49980;-64
2023/01/28 09:57:22;;;;;;;;;26.50;23.00;;;;;4.93;100.00;102779.06;4914320;28;50937;-65
2023/01/28 09:59:51;;;;;;;;;28.25;21.00;;;;;5.02;100.00;102793.69;4913716;28;50086;-66
2023/01/28 10:02:27;;;;;;;;;29.75;25.00;;;;;5.28;100.00;102823.38;4913707;28;50024;-65
2023/01/28 10:05:14;;;;;;;;;21.75;19.25;;;;;5.17;100.00;102828.69;4906411;28;49850;-72
2023/01/28 10:08:06;;;;;;;;;30.75;27.75;;;;;5.14;100.00;102824.94;4911652;28;49908;-69
2023/01/28 10:10:43;;;;;;;;;21.75;20.75;;;;;4.87;100.00;102782.09;4913535;28;50036;-70
2023/01/28 10:13:24;;;;;;;;;25.50;22.00;;;;;5.15;100.00;102829.34;4914597;28;49694;-68
2023/01/28 10:15:55;;;;;;;;;25.25;21.00;;;;;4.52;100.00;102722.19;4915804;28;49983;-68
2023/01/28 10:18:32;;;;;;;;;30.25;23.50;;;;;4.95;100.00;102811.31;4915335;28;49718;-73
2023/01/28 10:21:06;;;;;;;;;25.00;21.25;;;;;4.66;100.00;102789.19;4910928;28;49782;-80
2023/01/28 10:24:15;;;;;;;;;28.75;23.00;;;;;4.97;100.00;102846.19;4910540;28;50858;-71
2023/01/28 10:26:43;;;;;;;;;20.25;17.25;;;;;3.92;100.00;102686.38;4913083;28;49869;-70
2023/01/28 10:29:20;;;;;;;;;24.00;21.00;;;;;3.14;100.00;102596.22;4910968;28;50062;-73
2023/01/28 10:32:15;;;;;;;;;21.00;20.75;;;;;4.88;100.00;102885.41;4912449;28;50075;-74
2023/01/28 10:34:40;;;;;;;;;26.25;23.75;;;;;3.46;100.00;102648.06;4915506;28;50007;-70
2023/01/28 10:37:12;;;;;;;;;29.00;22.25;;;;;4.83;100.00;102843.44;4917925;28;49869;-69
2023/01/28 10:39:37;;;;;;;;;24.25;21.25;;;;;4.84;100.00;102852.16;4913866;28;49985;-76
2023/01/28 10:42:19;;;;;;;;;28.50;28.25;;;;;4.59;100.00;102811.22;4912781;28;49861;-69
2023/01/28 10:44:46;;;;;;;;;24.25;20.75;;;;;4.46;100.00;102800.66;4913975;28;50847;-69
2023/01/28 10:47:26;;;;;;;;;23.50;19.25;;;;;4.31;100.00;102757.84;4915465;28;49889;-69
2023/01/28 10:49:55;;;;;;;;;34.50;28.25;;;;;4.37;100.00;102776.53;4911280;28;51127;-70
2023/01/28 10:52:21;;;;;;;;;38.00;25.25;;;;;4.43;100.00;102789.09;4914401;28;49851;-70
2023/01/28 10:54:46;;;;;;;;;29.75;28.00;;;;;3.84;100.00;102686.56;4912285;28;50012;-73
2023/01/28 10:57:16;;;;;;;;;24.00;23.00;;;;;3.64;100.00;102679.78;4912474;28;50084;-70
2023/01/28 10:59:43;;;;;;;;;30.00;23.50;;;;;4.46;100.00;102803.25;4909988;28;51662;-73
2023/01/28 11:02:31;;;;;;;;;24.00;24.00;;;;;4.54;100.00;102802.16;4911487;28;50283;-69
2023/01/28 11:05:20;;;;;;;;;34.25;26.75;;;;;4.81;100.00;102831.97;4909752;28;50774;-72
2023/01/28 11:07:49;;;;;;;;;32.75;23.00;;;;;4.74;100.00;102815.81;4910954;28;49850;-72
2023/01/28 11:10:32;;;;;;;;;27.75;24.25;;;;;5.04;100.00;102851.06;4909866;28;51802;-68
2023/01/28 11:13:01;;;;;;;;;24.75;23.50;;;;;5.08;100.00;102861.81;4909596;28;49735;-73
2023/01/28 11:15:27;;;;;;;;;24.75;24.75;;;;;5.01;100.00;102845.59;4910973;28;50021;-67
2023/01/28 11:17:59;;;;;;;;;22.75;18.25;;;;;3.64;100.00;102633.03;4911252;28;50056;-71
2023/01/28 11:20:30;;;;;;;;;26.25;24.50;;;;;4.18;100.00;102710.91;4908983;28;50775;-71
2023/01/28 11:22:56;;;;;;;;;27.75;25.75;;;;;4.00;100.00;102686.97;4911910;28;50018;-71
2023/01/28 11:25:33;;;;;;;;;28.00;23.75;;;;;4.40;100.00;102755.97;4910461;28;50311;-69
2023/01/28 11:28:02;;;;;;;;;35.00;27.50;;;;;4.90;100.00;102821.38;4925581;28;49510;-67
2023/01/28 11:30:32;;;;;;;;;25.00;21.25;;;;;5.00;100.00;102839.50;4925631;28;50377;-68
2023/01/28 11:33:05;;;;;;;;;23.75;21.50;;;;;4.99;100.00;102839.38;4929547;28;49323;-70
2023/01/28 11:35:31;;;;;;;;;28.50;25.50;;;;;3.85;100.00;102645.09;4928015;28;49575;-69
2023/01/28 11:37:59;;;;;;;;;29.75;22.00;;;;;3.99;100.00;102659.19;4924118;28;49520;-67
2023/01/28 11:40:26;;;;;;;;;25.00;23.75;;;;;5.07;100.00;102843.50;4912893;28;52260;-67
2023/01/28 11:42:59;;;;;;;;;24.25;21.00;;;;;4.98;100.00;102829.78;4929361;28;49408;-69
2023/01/28 11:45:35;;;;;;;;;29.75;27.75;;;;;5.04;100.00;102835.47;4908264;28;49774;-72
2023/01/28 11:48:13;;;;;;;;;23.00;17.50;;;;;4.97;100.00;102839.28;4909404;28;50217;-65
2023/01/28 11:50:44;;;;;;;;;31.25;28.25;;;;;4.97;100.00;102833.16;4907869;28;51142;-67
2023/01/28 11:53:19;;;;;;;;;25.00;21.50;;;;;4.98;100.00;102824.56;4906602;28;51109;-70
2023/01/28 11:56:03;;;;;;;;;37.75;30.00;;;;;4.09;100.00;102666.00;4912204;28;50052;-66
2023/01/28 11:58:47;;;;;;;;;33.50;27.00;;;;;5.01;100.00;102835.19;4912035;28;50276;-70
2023/01/28 12:01:19;;;;;;;;;20.50;19.25;;;;;5.04;100.00;102857.19;4909589;28;51119;-67
2023/01/28 12:03:50;;;;;;;;;25.50;19.50;;;;;4.99;100.00;102832.47;4908934;28;49827;-66
2023/01/28 12:06:53;;;;;;;;;31.50;26.75;;;;;4.98;100.00;102828.06;4914188;28;50046;-66
2023/01/28 12:10:00;;;;;;;;;35.00;24.00;;;;;4.97;100.00;102835.78;4909620;28;50313;-69
2023/01/28 12:12:52;;;;;;;;;30.00;27.00;;;;;4.97;100.00;102827.97;4922815;28;50283;-67
2023/01/28 12:15:42;;;;;;;;;25.50;21.50;;;;;4.92;100.00;102830.19;4911047;28;50066;-67
2023/01/28 12:18:44;;;;;;;;;23.75;20.00;;;;;4.89;100.00;102827.38;4912287;28;49749;-69
2023/01/28 12:21:26;;;;;;;;;19.75;18.00;;;;;4.69;100.00;102793.72;4911791;28;50186;-68
2023/01/28 12:24:13;;;;;;;;;36.50;27.75;;;;;4.91;100.00;102840.50;4914177;28;49983;-71
2023/01/28 12:26:38;;;;;;;;;20.00;19.25;;;;;4.90;100.00;102836.97;4917996;28;49883;-66
2023/01/28 12:29:23;;;;;;;;;28.75;20.00;;;;;4.82;100.00;102822.47;4919386;28;49825;-68
2023/01/28 12:32:17;;;;;;;;;25.25;20.75;;;;;4.37;100.00;102724.53;4913561;28;49954;-69
2023/01/28 12:35:11;;;;;;;;;31.25;27.00;;;;;4.49;100.00;102751.47;4920264;28;50086;-69
2023/01/28 12:38:00;;;;;;;;;38.50;30.25;;;;;4.99;100.00;102795.13;4914462;28;50099;-70
2023/01/28 12:40:52;;;;;;;;;23.25;17.75;;;;;5.04;100.00;102819.84;4916090;28;50096;-73
2023/01/28 12:43:26;;;;;;;;;27.75;26.50;;;;;4.15;100.00;102674.25;4914907;28;49920;-72
2023/01/28 12:45:59;;;;;;;;;29.25;24.00;;;;;4.76;100.00;102791.72;4914788;28;49979;-71
2023/01/28 12:48:38;;;;;;;;;32.00;27.75;;;;;4.91;100.00;102817.06;4916250;28;49987;-69
2023/01/28 12:51:14;;;;;;;;;20.75;19.75;;;;;4.66;100.00;102757.06;4918738;28;49808;-69
2023/01/28 12:53:42;;;;;;;;;29.75;29.25;;;;;5.09;100.00;102821.06;4920594;28;49687;-71
2023/01/28 12:56:14;;;;;;;;;23.75;23.75;;;;;4.60;100.00;102734.97;4925882;28;51218;-75
2023/01/28 12:58:50;;;;;;;;;28.50;20.00;;;;;5.04;100.00;102792.09;4925532;28;50177;-70
2023/01/28 13:01:23;;;;;;;;;25.00;22.50;;;;;5.17;100.00;102804.34;4925210;28;49477;-71
2023/01/28 13:03:59;;;;;;;;;20.50;20.00;;;;;4.82;100.00;102734.91;4931116;28;49667;-70
2023/01/28 13:06:49;;;;;;;;;21.25;17.00;;;;;4.76;100.00;102724.06;4931756;28;49577;-69
2023/01/28 13:09:18;;;;;;;;;18.25;17.00;;;;;5.18;100.00;102796.63;4928021;28;49593;-70
2023/01/28 13:11:45;;;;;;;;;24.25;21.00;;;;;5.20;100.00;102796.75;4929268;28;49723;-69
2023/01/28 13:14:12;;;;;;;;;28.25;19.50;;;;;5.11;100.00;102794.34;4926028;28;49882;-71
2023/01/28 13:16:37;;;;;;;;;22.25;18.75;;;;;5.13;100.00;102798.00;4931778;28;49957;-70
2023/01/28 13:19:21;;;;;;;;;27.75;24.25;;;;;5.12;100.00;102791.00;4932085;28;49197;-72
2023/01/28 13:21:48;;;;;;;;;27.50;22.00;;;;;5.03;100.00;102766.88;4924042;28;49632;-70
2023/01/28 13:24:14;;;;;;;;;24.25;23.75;;;;;5.36;100.00;102814.44;4920032;28;49684;-69
2023/01/28 13:26:45;;;;;;;;;27.75;23.50;;;;;5.08;100.00;102781.13;4924909;28;55800;-74
2023/01/28 13:29:14;;;;;;;;;19.00;19.00;;;;;5.03;100.00;102766.88;4926429;28;49386;-74
2023/01/28 13:31:48;;;;;;;;;29.25;24.25;;;;;4.32;100.00;102635.75;4929224;28;49592;-74
2023/01/28 13:34:42;;;;;;;;;26.75;23.00;;;;;5.03;100.00;102787.69;4929274;28;49704;-73
2023/01/28 13:37:29;;;;;;;;;20.25;17.25;;;;;5.11;100.00;102803.88;4928318;28;51543;-75
2023/01/28 13:40:06;;;;;;;;;35.50;32.75;;;;;3.81;100.00;102604.09;4929619;28;49461;-74
2023/01/28 13:42:31;;;;;;;;;30.75;24.00;;;;;4.31;100.00;102672.03;4929815;28;49853;-75
2023/01/28 13:45:15;;;;;;;;;29.00;28.50;;;;;5.01;100.00;102783.13;4929251;28;49565;-71
2023/01/28 13:47:45;;;;;;;;;22.50;16.50;;;;;3.45;100.00;102548.50;4930345;28;50835;-70
2023/01/28 13:50:15;;;;;;;;;28.50;23.75;;;;;4.28;100.00;102638.94;4929914;28;49657;-70
2023/01/28 13:52:58;;;;;;;;;24.75;23.00;;;;;5.25;100.00;102807.53;4929752;28;49401;-70
2023/01/28 13:55:28;;;;;;;;;20.00;20.00;;;;;5.37;100.00;102829.25;4930553;28;49858;-70
2023/01/28 13:58:05;;;;;;;;;24.75;23.25;;;;;5.40;100.00;102806.03;4929667;28;51119;-70
2023/01/28 14:01:02;;;;;;;;;21.50;21.25;;;;;5.21;100.00;102808.06;4930078;28;49716;-70
2023/01/28 14:04:01;;;;;;;;;21.50;21.50;;;;;4.90;100.00;102743.28;4929451;28;49741;-70
2023/01/28 14:06:48;;;;;;;;;16.00;14.50;;;;;5.25;100.00;102800.63;4930467;28;49539;-70
2023/01/28 14:09:49;;;;;;;;;28.75;26.25;;;;;5.28;100.00;102803.44;4929590;28;49576;-68
2023/01/28 14:12:42;;;;;;;;;28.50;25.50;;;;;5.36;100.00;102810.13;4930397;28;49695;-70
2023/01/28 14:15:29;;;;;;;;;24.75;22.00;;;;;4.87;100.00;102728.38;4930000;28;49904;-68
2023/01/28 14:17:56;;;;;;;;;25.75;19.50;;;;;5.25;100.00;102779.78;4923560;28;49925;-69
2023/01/28 14:20:30;;;;;;;;;31.75;26.50;;;;;4.78;100.00;102718.97;4930210;28;49686;-70
2023/01/28 14:23:04;;;;;;;;;34.00;24.75;;;;;4.47;100.00;102680.22;4928505;28;49544;-70
2023/01/28 14:25:40;;;;;;;;;28.75;26.00;;;;;5.41;100.00;102795.75;4929944;28;49841;-71
2023/01/28 14:28:13;;;;;;;;;32.50;28.75;;;;;4.29;100.00;102616.44;4929467;28;49906;-70
2023/01/28 14:31:14;;;;;;;;;33.75;28.00;;;;;5.53;100.00;102802.66;4928805;28;49434;-70
2023/01/28 14:33:40;;;;;;;;;33.75;28.00;;;;;5.00;100.00;102751.00;4929518;28;49491;-71
2023/01/28 14:36:10;;;;;;;;;25.25;24.00;;;;;5.06;100.00;102755.78;4929577;28;49800;-71
2023/01/28 14:38:39;;;;;;;;;17.25;16.25;;;;;5.08;100.00;102746.38;4930018;28;49684;-71
2023/01/28 14:41:05;;;;;;;;;30.00;29.00;;;;;5.03;100.00;102764.25;4928877;28;49725;-71
2023/01/28 14:43:30;;;;;;;;;36.75;33.00;;;;;4.66;100.00;102705.94;4928808;28;49851;-72
2023/01/28 14:46:28;;;;;;;;;33.00;21.50;;;;;5.05;100.00;102760.06;4929039;28;49499;-70
2023/01/28 14:49:27;;;;;;;;;37.00;28.25;;;;;5.38;100.00;102823.25;4928275;28;49583;-71
2023/01/28 14:52:28;;;;;;;;;29.25;28.50;;;;;5.28;100.00;102829.47;4924632;28;52651;-71
2023/01/28 14:55:13;;;;;;;;;25.50;23.50;;;;;5.38;100.00;102838.88;4929575;28;49360;-76
2023/01/28 14:58:05;;;;;;;;;33.75;28.25;;;;;5.04;100.00;102762.56;4930101;28;49810;-72
2023/01/28 15:00:33;;;;;;;;;29.25;26.25;;;;;4.03;100.00;102632.63;4930060;28;49768;-73
2023/01/28 15:02:59;;;;;;;;;43.25;33.25;;;;;5.38;100.00;102821.56;4929230;28;49798;-73
2023/01/28 15:05:28;;;;;;;;;26.75;23.75;;;;;3.31;100.00;102501.50;4929698;28;49299;-74
2023/01/28 15:07:55;;;;;;;;;33.00;29.50;;;;;3.42;100.00;102498.94;4928947;28;49444;-74
2023/01/28 15:10:24;;;;;;;;;29.25;25.00;;;;;5.08;100.00;102749.88;4929402;28;49597;-75
2023/01/28 15:12:55;;;;;;;;;31.75;25.00;;;;;5.52;100.00;102812.19;4928523;28;49710;-79
2023/01/28 15:15:28;;;;;;;;;31.75;28.25;;;;;4.19;100.00;102611.31;4928062;28;50366;-77
2023/01/28 15:17:59;;;;;;;;;26.25;24.50;;;;;3.85;100.00;102594.84;4929087;28;49678;-74
2023/01/28 15:20:25;;;;;;;;;24.75;23.25;;;;;3.14;100.00;102471.66;4927305;28;49743;-76
2023/01/28 15:22:52;;;;;;;;;25.50;23.25;;;;;5.39;100.00;102812.94;4928873;28;49903;-76
2023/01/28 15:25:20;;;;;;;;;26.50;24.50;;;;;4.79;100.00;102742.50;4929411;28;49407;-74
2023/01/28 15:27:48;;;;;;;;;30.00;24.75;;;;;4.19;100.00;102593.13;4928263;28;49515;-73
2023/01/28 15:30:25;;;;;;;;;26.00;21.75;;;;;4.68;100.00;102664.44;4928704;28;49592;-75
2023/01/28 15:33:02;;;;;;;;;29.00;24.25;;;;;5.52;100.00;102814.78;4927467;28;50918;-74
2023/01/28 15:35:27;;;;;;;;;26.75;22.50;;;;;4.87;100.00;102770.00;4929043;28;49639;-75
2023/01/28 15:37:53;;;;;;;;;33.25;26.50;;;;;3.59;100.00;102535.72;4923147;28;49727;-75
2023/01/28 15:40:20;;;;;;;;;31.50;29.25;;;;;5.27;100.00;102829.38;4929228;28;49784;-75
2023/01/28 15:42:47;;;;;;;;;26.50;22.75;;;;;5.32;100.00;102835.84;4928795;28;49684;-74
2023/01/28 15:45:20;;;;;;;;;36.00;28.50;;;;;5.38;100.00;102833.69;4928680;28;49265;-76
2023/01/28 15:47:48;;;;;;;;;31.25;28.00;;;;;5.34;100.00;102837.75;4922652;28;49585;-76
2023/01/28 15:50:19;;;;;;;;;28.50;28.25;;;;;3.51;100.00;102552.38;4927260;28;49919;-74
2023/01/28 15:52:45;;;;;;;;;29.75;25.00;;;;;5.33;100.00;102863.69;4927622;28;50089;-75
2023/01/28 15:55:32;;;;;;;;;32.50;26.50;;;;;5.28;100.00;102852.00;4928867;28;49484;-77
2023/01/28 15:58:14;;;;;;;;;30.75;24.75;;;;;3.72;100.00;102648.44;4928539;28;49502;-81
2023/01/28 16:00:39;;;;;;;;;32.00;27.50;;;;;4.76;100.00;102822.03;4928432;28;49715;-79
2023/01/28 16:03:09;;;;;;;;;38.50;27.75;;;;;5.06;100.00;102859.91;4927976;28;49897;-72
2023/01/28 16:05:38;;;;;;;;;29.50;28.75;;;;;3.93;100.00;102732.34;4928523;28;49563;-68
2023/01/28 16:08:36;;;;;;;;;35.00;33.25;;;;;5.06;100.00;102879.03;4923846;28;49980;-73
2023/01/28 16:11:02;;;;;;;;;42.50;30.25;;;;;4.78;100.00;102829.16;4927495;28;49619;-73
2023/01/28 16:13:31;;;;;;;;;32.00;25.75;;;;;4.91;100.00;102849.22;4928017;28;50723;-84
2023/01/28 16:15:59;;;;;;;;;36.00;30.50;;;;;4.65;100.00;102805.59;4927986;28;49325;-75
2023/01/28 16:18:33;;;;;;;;;33.00;23.00;;;;;4.95;100.00;102856.47;4927858;28;49700;-75
2023/01/28 16:20:59;;;;;;;;;36.25;33.00;;;;;4.35;100.00;102746.00;4927711;28;49752;-74
2023/01/28 16:23:26;;;;;;;;;41.50;34.50;;;;;4.74;100.00;102853.13;4927997;28;50688;-75
2023/01/28 16:26:06;;;;;;;;;31.00;29.75;;;;;4.66;100.00;102819.50;4924075;28;50396;-73
2023/01/28 16:28:31;;;;;;;;;38.00;29.75;;;;;4.72;100.00;102839.06;4926051;28;49796;-75
2023/01/28 16:30:58;;;;;;;;;30.50;23.25;;;;;4.09;100.00;102728.38;4922848;28;49676;-76
2023/01/28 16:33:25;;;;;;;;;30.25;28.00;;;;;3.74;100.00;102690.13;4928036;28;49941;-75
2023/01/28 16:35:50;;;;;;;;;39.75;35.25;;;;;4.14;100.00;102740.94;4923205;28;49898;-75
2023/01/28 16:38:17;;;;;;;;;40.50;32.00;;;;;4.70;100.00;102869.28;4928400;28;49496;-74
2023/01/28 16:40:43;;;;;;;;;36.25;29.50;;;;;4.32;100.00;102788.25;4926530;28;49666;-73
2023/01/28 16:43:11;;;;;;;;;39.75;37.00;;;;;3.91;100.00;102697.56;4927546;28;49398;-75
2023/01/28 16:45:36;;;;;;;;;35.25;31.50;;;;;4.67;100.00;102844.72;4924158;28;50207;-73
2023/01/28 16:48:02;;;;;;;;;35.50;29.00;;;;;3.86;100.00;102700.56;4925986;28;50042;-73
2023/01/28 16:50:28;;;;;;;;;37.50;32.75;;;;;3.99;100.00;102711.16;4927897;28;49764;-73
2023/01/28 16:52:55;;;;;;;;;42.00;33.50;;;;;3.44;100.00;102634.97;4927057;28;49728;-73
2023/01/28 16:55:21;;;;;;;;;41.00;31.25;;;;;2.78;100.00;102592.44;4924621;28;50158;-75
2023/01/28 16:57:51;;;;;;;;;40.50;34.75;;;;;4.09;100.00;102765.66;4917319;28;50040;-64
2023/01/28 17:00:28;;;;;;;;;45.00;38.25;;;;;4.55;100.00;102868.09;4907801;28;50613;-66
2023/01/28 17:02:54;;;;;;;;;41.00;36.25;;;;;3.48;100.00;102682.88;4911129;28;50793;-69
2023/01/28 17:05:20;;;;;;;;;43.75;36.00;;;;;4.76;100.00;102885.38;4909494;28;49775;-68
2023/01/28 17:07:49;;;;;;;;;48.25;38.50;;;;;4.69;100.00;102880.47;4907209;28;49866;-68
2023/01/28 17:10:19;;;;;;;;;41.75;32.50;;;;;3.57;100.00;102711.25;4910626;28;49946;-68
2023/01/28 17:12:46;;;;;;;;;45.75;38.50;;;;;4.19;100.00;102827.09;4909220;28;52406;-65
2023/01/28 17:15:12;;;;;;;;;48.25;36.25;;;;;3.28;100.00;102690.72;4910526;28;49887;-65
2023/01/28 17:17:37;;;;;;;;;40.25;34.75;;;;;4.06;100.00;102808.72;4910252;28;49839;-67
2023/01/28 17:20:03;;;;;;;;;51.25;40.50;;;;;4.19;100.00;102835.78;4910075;28;50000;-69
2023/01/28 17:22:28;;;;;;;;;38.25;31.75;;;;;4.20;100.00;102826.31;4910548;28;50007;-69
2023/01/28 17:24:54;;;;;;;;;46.25;37.25;;;;;4.09;100.00;102802.06;4910991;28;49699;-69
2023/01/28 17:27:19;;;;;;;;;32.50;29.50;;;;;3.92;100.00;102772.13;4911935;28;49999;-69
2023/01/28 17:29:44;;;;;;;;;37.50;30.50;;;;;4.38;100.00;102851.16;4911921;28;49948;-70
2023/01/28 17:32:10;;;;;;;;;39.75;33.25;;;;;4.41;100.00;102856.59;4911567;28;50928;-71
2023/01/28 17:34:35;;;;;;;;;38.25;33.00;;;;;3.13;100.00;102690.41;4911717;28;49924;-70
2023/01/28 17:37:01;;;;;;;;;37.00;30.00;;;;;3.46;100.00;102749.34;4911779;28;50339;-71
2023/01/28 17:39:26;;;;;;;;;40.50;35.25;;;;;2.43;100.00;102646.63;4912215;28;49736;-71
2023/01/28 17:41:51;;;;;;;;;25.00;22.50;;;;;3.87;100.00;102872.19;4912334;28;50680;-71
2023/01/28 17:44:18;;;;;;;;;43.50;36.00;;;;;4.08;100.00;102913.72;4914704;28;49960;-73
2023/01/28 17:46:44;;;;;;;;;35.50;31.25;;;;;3.39;100.00;102791.19;4918075;28;49731;-71
2023/01/28 17:49:10;;;;;;;;;33.00;27.75;;;;;3.78;100.00;102897.44;4918363;28;49706;-70
2023/01/28 17:51:35;;;;;;;;;35.00;29.75;;;;;3.41;100.00;102793.13;4918815;28;50678;-70
2023/01/28 17:54:02;;;;;;;;;35.75;30.00;;;;;1.70;100.00;102479.84;4919281;28;50083;-71
2023/01/28 17:56:28;;;;;;;;;36.00;29.00;;;;;3.99;100.00;102886.19;4915044;28;49794;-71
2023/01/28 17:58:56;;;;;;;;;40.25;33.25;;;;;4.09;100.00;102905.13;4915250;28;50103;-71
2023/01/28 18:01:22;;;;;;;;;36.00;30.50;;;;;3.90;100.00;102881.94;4914458;28;50658;-71
2023/01/28 18:03:48;;;;;;;;;39.75;33.75;;;;;3.28;100.00;102830.91;4914992;28;49904;-70
2023/01/28 18:06:13;;;;;;;;;31.75;26.25;;;;;2.27;100.00;102646.09;4914132;28;49768;-71
2023/01/28 18:08:39;;;;;;;;;45.25;41.00;;;;;3.95;100.00;102951.66;4914935;28;49917;-76
2023/01/28 18:11:09;;;;;;;;;31.50;23.00;;;;;2.95;100.00;102775.44;4912693;28;50016;-73
2023/01/28 18:13:36;;;;;;;;;41.25;33.25;;;;;2.74;100.00;102766.75;4914040;28;50036;-74
2023/01/28 18:16:02;;;;;;;;;44.50;39.00;;;;;2.98;100.00;102796.44;4914337;28;49847;-74
2023/01/28 18:18:28;;;;;;;;;39.25;32.25;;;;;4.17;100.00;103008.94;4914771;28;49902;-74
2023/01/28 18:21:01;;;;;;;;;43.00;34.75;;;;;3.51;100.00;102908.13;4914112;28;49687;-74
2023/01/28 18:23:27;;;;;;;;;47.00;41.75;;;;;3.37;100.00;102835.16;4914461;28;49716;-77
2023/01/28 18:26:03;;;;;;;;;38.50;32.50;;;;;4.11;100.00;102964.25;4914585;28;49946;-74
2023/01/28 18:28:31;;;;;;;;;34.25;31.00;;;;;4.22;100.00;102996.31;4914160;28;49719;-78
2023/01/28 18:31:03;;;;;;;;;32.00;27.75;;;;;3.01;100.00;102768.16;4914086;28;51066;-71
2023/01/28 18:33:29;;;;;;;;;48.00;43.75;;;;;3.73;100.00;102927.31;4914341;28;49672;-72
2023/01/28 18:35:54;;;;;;;;;41.00;27.00;;;;;3.93;100.00;102940.25;4913928;28;49767;-71
2023/01/28 18:38:19;;;;;;;;;38.50;31.50;;;;;2.59;100.00;102722.28;4914616;28;49676;-71
2023/01/28 18:40:45;;;;;;;;;35.75;31.00;;;;;3.10;100.00;102773.22;4914151;28;50872;-71
2023/01/28 18:43:12;;;;;;;;;34.25;29.50;;;;;3.31;100.00;102810.41;4914138;28;49663;-71
2023/01/28 18:45:44;;;;;;;;;37.50;28.25;;;;;3.52;100.00;102858.00;4913757;28;49855;-71
2023/01/28 18:48:10;;;;;;;;;35.25;27.75;;;;;2.95;100.00;102784.91;4913505;28;50057;-74
2023/01/28 18:50:36;;;;;;;;;34.25;32.25;;;;;3.13;100.00;102763.09;4917461;28;50627;-71
2023/01/28 18:53:02;;;;;;;;;37.00;33.25;;;;;2.26;100.00;102616.69;4923082;28;49771;-73